Time,TemperatureF,DewpointF,PressureIn,WindDirection,WindDirectionDegrees,WindSpeedMPH,WindSpeedGustMPH,Humidity,HourlyPrecipIn,Conditions,Clouds,dailyrainin,SoftwareType,DateUTC
2013-11-16 00:04:00,67.3,61.6,29.94,SW,233,0.0,3.0,82,0.00,CLR,,0.14,WeatherDisplay:10.37,2013-11-15 13:04:00,
2013-11-16 00:09:00,67.3,61.7,29.94,SW,232,1.0,4.0,82,0.00,CLR,,0.14,WeatherDisplay:10.37,2013-11-15 13:09:00,
2013-11-16 00:14:00,67.5,61.8,29.93,SW,227,1.0,4.0,82,0.00,CLR,,0.14,WeatherDisplay:10.37,2013-11-15 13:14:00,
2013-11-16 00:19:00,67.3,61.6,29.93,SW,224,0.0,2.0,82,0.00,CLR,,0.14,WeatherDisplay:10.37,2013-11-15 13:19:00,
2013-11-16 00:24:00,67.5,61.8,29.93,WNW,283,0.0,2.0,82,0.00,CLR,,0.14,WeatherDisplay:10.37,2013-11-15 13:24:00,
2013-11-16 00:29:00,67.3,61.9,29.93,NW,316,0.0,2.0,83,0.00,CLR,,0.14,WeatherDisplay:10.37,2013-11-15 13:29:00,
2013-11-16 00:34:00,67.6,62.3,29.92,NW,308,0.0,1.0,83,0.00,CLR,,0.14,WeatherDisplay:10.37,2013-11-15 13:34:00,
2013-11-16 00:39:00,67.6,62.3,29.93,West,272,1.0,2.0,83,0.00,CLR,,0.14,WeatherDisplay:10.37,2013-11-15 13:39:00,
2013-11-16 00:44:00,67.6,62.3,29.93,WSW,248,2.0,5.0,83,0.00,CLR,,0.14,WeatherDisplay:10.37,2013-11-15 13:44:00,
2013-11-16 00:49:00,67.3,61.9,29.93,SSW,203,1.0,3.0,83,0.00,CLR,,0.14,WeatherDisplay:10.37,2013-11-15 13:49:00,
2013-11-16 00:54:00,67.3,61.9,29.92,SE,136,0.0,2.0,83,0.00,CLR,,0.14,WeatherDisplay:10.37,2013-11-15 13:54:00,
2013-11-16 00:59:00,67.3,61.9,29.93,ENE,77,0.0,1.0,83,0.00,CLR,,0.14,WeatherDisplay:10.37,2013-11-15 13:59:00,
2013-11-16 01:04:00,67.3,61.9,29.92,North,352,0.0,0.0,83,0.00,CLR,,0.14,WeatherDisplay:10.37,2013-11-15 14:04:00,
2013-11-16 01:09:00,67.3,61.9,29.93,WNW,287,0.0,0.0,83,0.00,CLR,,0.14,WeatherDisplay:10.37,2013-11-15 14:09:00,
2013-11-16 01:14:00,67.3,61.9,29.92,WSW,237,1.0,2.0,83,0.00,CLR,,0.14,WeatherDisplay:10.37,2013-11-15 14:14:00,
2013-11-16 01:19:00,67.1,61.8,29.92,SW,214,0.0,1.0,83,0.00,CLR,,0.14,WeatherDisplay:10.37,2013-11-15 14:19:00,
2013-11-16 01:24:00,67.1,61.8,29.92,SW,231,1.0,2.0,83,0.00,CLR,,0.14,WeatherDisplay:10.37,2013-11-15 14:24:00,
2013-11-16 01:34:00,66.9,61.6,29.93,SW,220,0.0,2.0,83,0.00,CLR,,0.14,WeatherDisplay:10.37,2013-11-15 14:34:00,
2013-11-16 01:39:00,66.9,61.6,29.92,SSW,211,0.0,1.0,83,0.00,CLR,,0.14,WeatherDisplay:10.37,2013-11-15 14:39:00,
2013-11-16 01:44:00,66.9,61.6,29.93,SSW,199,0.0,1.0,83,0.00,CLR,,0.14,WeatherDisplay:10.37,2013-11-15 14:44:00,
2013-11-16 01:54:00,66.6,61.2,29.94,SSW,202,6.0,11.0,83,0.00,CLR,,0.14,WeatherDisplay:10.37,2013-11-15 14:54:00,
2013-11-16 01:59:00,65.9,59.9,29.94,SSW,208,8.0,14.0,81,0.00,CLR,,0.14,WeatherDisplay:10.37,2013-11-15 14:59:00,
2013-11-16 02:04:00,64.6,58.3,29.94,SSW,213,12.0,20.0,80,0.00,CLR,,0.14,WeatherDisplay:10.37,2013-11-15 15:04:00,
2013-11-16 02:09:00,63.5,57.2,29.94,SSW,211,12.0,18.0,80,0.00,CLR,,0.14,WeatherDisplay:10.37,2013-11-15 15:09:00,
2013-11-16 02:14:00,63.1,56.9,29.95,SSW,199,5.0,10.0,80,0.00,CLR,,0.14,WeatherDisplay:10.37,2013-11-15 15:14:00,
2013-11-16 02:19:00,62.8,56.5,29.95,South,190,7.0,12.0,80,0.00,CLR,,0.14,WeatherDisplay:10.37,2013-11-15 15:19:00,
2013-11-16 02:24:00,62.4,56.5,29.95,South,190,3.0,13.0,81,0.00,CLR,,0.14,WeatherDisplay:10.37,2013-11-15 15:24:00,
2013-11-16 02:29:00,62.7,57.1,29.95,South,173,5.0,9.0,82,0.00,CLR,,0.14,WeatherDisplay:10.37,2013-11-15 15:29:00,
2013-11-16 02:34:00,62.8,57.2,29.96,SSE,166,3.0,9.0,82,0.00,CLR,,0.14,WeatherDisplay:10.37,2013-11-15 15:34:00,
2013-11-16 02:39:00,62.8,57.2,29.95,South,185,7.0,13.0,82,0.00,CLR,,0.14,WeatherDisplay:10.37,2013-11-15 15:39:00,
2013-11-16 02:44:00,62.8,57.2,29.95,SSW,192,5.0,8.0,82,0.00,CLR,,0.14,WeatherDisplay:10.37,2013-11-15 15:44:00,
2013-11-16 02:49:00,62.8,57.2,29.95,SSW,200,2.0,9.0,82,0.00,CLR,,0.14,WeatherDisplay:10.37,2013-11-15 15:49:00,
2013-11-16 02:54:00,62.9,57.3,29.94,SSW,209,1.0,7.0,82,0.00,CLR,,0.14,WeatherDisplay:10.37,2013-11-15 15:54:00,
2013-11-16 02:59:00,63.0,57.4,29.93,SSW,198,2.0,4.0,82,0.00,CLR,,0.14,WeatherDisplay:10.37,2013-11-15 15:59:00,
2013-11-16 03:04:00,63.1,57.6,29.93,SSW,199,0.0,3.0,82,0.00,CLR,,0.14,WeatherDisplay:10.37,2013-11-15 16:04:00,
2013-11-16 03:09:00,63.1,57.6,29.93,SW,230,1.0,4.0,82,0.00,CLR,,0.14,WeatherDisplay:10.37,2013-11-15 16:09:00,
2013-11-16 03:14:00,63.0,57.4,29.93,WSW,239,2.0,6.0,82,0.00,CLR,,0.14,WeatherDisplay:10.37,2013-11-15 16:14:00,
2013-11-16 03:19:00,62.8,57.2,29.93,WSW,240,5.0,9.0,82,0.00,CLR,,0.14,WeatherDisplay:10.37,2013-11-15 16:19:00,
2013-11-16 03:24:00,62.4,56.9,29.93,SW,229,2.0,8.0,82,0.00,CLR,,0.14,WeatherDisplay:10.37,2013-11-15 16:24:00,
2013-11-16 03:29:00,62.4,56.9,29.93,SW,223,1.0,6.0,82,0.00,CLR,,0.14,WeatherDisplay:10.37,2013-11-15 16:29:00,
2013-11-16 03:34:00,62.4,56.9,29.93,SSW,210,1.0,3.0,82,0.00,CLR,,0.14,WeatherDisplay:10.37,2013-11-15 16:34:00,
2013-11-16 03:39:00,62.4,56.9,29.94,SSW,192,2.0,5.0,82,0.00,CLR,,0.14,WeatherDisplay:10.37,2013-11-15 16:39:00,
2013-11-16 03:44:00,62.4,56.8,29.93,SSW,203,3.0,5.0,82,0.00,CLR,,0.14,WeatherDisplay:10.37,2013-11-15 16:44:00,
2013-11-16 03:49:00,62.1,56.2,29.93,SSW,210,3.0,7.0,81,0.00,CLR,,0.14,WeatherDisplay:10.37,2013-11-15 16:49:00,
2013-11-16 03:54:00,61.9,56.0,29.94,SW,215,3.0,8.0,81,0.00,CLR,,0.14,WeatherDisplay:10.37,2013-11-15 16:54:00,
2013-11-16 03:59:00,61.9,56.0,29.93,SW,215,3.0,6.0,81,0.00,CLR,,0.14,WeatherDisplay:10.37,2013-11-15 16:59:00,
2013-11-16 04:04:00,61.9,56.0,29.93,SW,216,3.0,6.0,81,0.00,CLR,,0.14,WeatherDisplay:10.37,2013-11-15 17:04:00,
2013-11-16 04:09:00,61.9,56.3,29.93,SW,217,5.0,7.0,82,0.00,CLR,,0.14,WeatherDisplay:10.37,2013-11-15 17:09:00,
2013-11-16 04:14:00,61.9,56.3,29.92,SSW,212,2.0,5.0,82,0.00,CLR,,0.14,WeatherDisplay:10.37,2013-11-15 17:14:00,
2013-11-16 04:19:00,61.9,56.3,29.92,SW,219,2.0,6.0,82,0.00,CLR,,0.14,WeatherDisplay:10.37,2013-11-15 17:19:00,
2013-11-16 04:24:00,61.9,56.3,29.92,SSW,213,2.0,5.0,82,0.00,CLR,,0.14,WeatherDisplay:10.37,2013-11-15 17:24:00,
2013-11-16 04:29:00,61.9,56.3,29.92,SSW,212,5.0,8.0,82,0.00,CLR,,0.14,WeatherDisplay:10.37,2013-11-15 17:29:00,
2013-11-16 04:34:00,61.9,56.3,29.92,SW,225,3.0,6.0,82,0.00,CLR,,0.14,WeatherDisplay:10.37,2013-11-15 17:34:00,
2013-11-16 04:39:00,61.5,56.0,29.93,SW,216,3.0,8.0,82,0.00,CLR,,0.14,WeatherDisplay:10.37,2013-11-15 17:39:00,
2013-11-16 04:44:00,61.3,55.8,29.93,SSW,201,3.0,11.0,82,0.00,CLR,,0.14,WeatherDisplay:10.37,2013-11-15 17:44:00,
2013-11-16 04:49:00,61.2,56.0,29.92,South,185,2.0,7.0,83,0.00,CLR,,0.14,WeatherDisplay:10.37,2013-11-15 17:49:00,
2013-11-16 04:54:00,61.2,56.0,29.92,South,169,1.0,4.0,83,0.00,CLR,,0.14,WeatherDisplay:10.37,2013-11-15 17:54:00,
2013-11-16 04:59:00,61.3,56.1,29.91,SSE,152,2.0,3.0,83,0.00,CLR,,0.14,WeatherDisplay:10.37,2013-11-15 17:59:00,
2013-11-16 05:04:00,61.5,56.3,29.91,South,177,2.0,6.0,83,0.00,CLR,,0.14,WeatherDisplay:10.37,2013-11-15 18:04:00,
2013-11-16 05:09:00,61.5,56.3,29.92,SSW,202,2.0,7.0,83,0.00,CLR,,0.14,WeatherDisplay:10.37,2013-11-15 18:09:00,
2013-11-16 05:14:00,61.5,56.3,29.92,SW,235,2.0,6.0,83,0.00,CLR,,0.14,WeatherDisplay:10.37,2013-11-15 18:14:00,
2013-11-16 05:19:00,61.7,56.5,29.92,SW,231,6.0,12.0,83,0.00,CLR,,0.14,WeatherDisplay:10.37,2013-11-15 18:19:00,
2013-11-16 05:24:00,61.3,56.1,29.93,SW,225,5.0,12.0,83,0.00,CLR,,0.14,WeatherDisplay:10.37,2013-11-15 18:24:00,
2013-11-16 05:29:00,61.2,56.0,29.93,SW,226,5.0,7.0,83,0.00,CLR,,0.14,WeatherDisplay:10.37,2013-11-15 18:29:00,
2013-11-16 05:34:00,61.0,55.8,29.93,SW,216,5.0,8.0,83,0.00,CLR,,0.14,WeatherDisplay:10.37,2013-11-15 18:34:00,
2013-11-16 05:39:00,60.8,55.6,29.93,SSW,212,5.0,7.0,83,0.00,CLR,,0.14,WeatherDisplay:10.37,2013-11-15 18:39:00,
2013-11-16 05:44:00,60.8,55.6,29.92,SSW,210,3.0,7.0,83,0.00,CLR,,0.14,WeatherDisplay:10.37,2013-11-15 18:44:00,
2013-11-16 05:49:00,60.6,55.4,29.92,SSW,208,5.0,7.0,83,0.00,CLR,,0.14,WeatherDisplay:10.37,2013-11-15 18:49:00,
2013-11-16 05:54:00,60.6,55.4,29.92,SSW,199,5.0,9.0,83,0.00,CLR,,0.14,WeatherDisplay:10.37,2013-11-15 18:54:00,
2013-11-16 05:59:00,60.4,55.6,29.92,SSW,200,6.0,9.0,84,0.00,CLR,,0.14,WeatherDisplay:10.37,2013-11-15 18:59:00,
2013-11-16 06:04:00,60.6,55.7,29.92,SSW,205,5.0,10.0,84,0.00,CLR,,0.14,WeatherDisplay:10.37,2013-11-15 19:04:00,
2013-11-16 06:09:00,60.6,55.8,29.93,SSW,211,3.0,6.0,84,0.00,CLR,,0.14,WeatherDisplay:10.37,2013-11-15 19:09:00,
2013-11-16 06:14:00,60.6,55.8,29.93,SW,218,3.0,5.0,84,0.00,CLR,,0.14,WeatherDisplay:10.37,2013-11-15 19:14:00,
2013-11-16 06:19:00,60.6,55.8,29.92,SW,218,3.0,6.0,84,0.00,CLR,,0.14,WeatherDisplay:10.37,2013-11-15 19:19:00,
2013-11-16 06:24:00,60.6,55.4,29.93,SW,214,5.0,7.0,83,0.00,CLR,,0.14,WeatherDisplay:10.37,2013-11-15 19:24:00,
2013-11-16 06:29:00,60.6,55.4,29.93,SW,214,3.0,8.0,83,0.00,CLR,,0.14,WeatherDisplay:10.37,2013-11-15 19:29:00,
2013-11-16 06:34:00,60.6,55.4,29.93,SSW,208,2.0,6.0,83,0.00,CLR,,0.14,WeatherDisplay:10.37,2013-11-15 19:34:00,
2013-11-16 06:39:00,60.6,55.4,29.94,SSW,206,1.0,5.0,83,0.00,CLR,,0.14,WeatherDisplay:10.37,2013-11-15 19:39:00,
2013-11-16 06:44:00,60.6,55.4,29.94,SSW,210,2.0,6.0,83,0.00,CLR,,0.14,WeatherDisplay:10.37,2013-11-15 19:44:00,
2013-11-16 06:49:00,61.0,55.8,29.94,SW,214,2.0,5.0,83,0.00,CLR,,0.14,WeatherDisplay:10.37,2013-11-15 19:49:00,
2013-11-16 06:54:00,61.0,55.8,29.94,SSW,212,3.0,6.0,83,0.00,CLR,,0.14,WeatherDisplay:10.37,2013-11-15 19:54:00,
2013-11-16 06:59:00,61.2,56.0,29.95,SSW,206,2.0,5.0,83,0.00,CLR,,0.14,WeatherDisplay:10.37,2013-11-15 19:59:00,
2013-11-16 07:04:00,61.2,56.0,29.95,SSW,210,2.0,7.0,83,0.00,CLR,,0.14,WeatherDisplay:10.37,2013-11-15 20:04:00,
2013-11-16 07:09:00,61.2,56.0,29.95,SSW,209,2.0,5.0,83,0.00,CLR,,0.14,WeatherDisplay:10.37,2013-11-15 20:09:00,
2013-11-16 07:14:00,61.2,56.0,29.95,SW,215,3.0,5.0,83,0.00,CLR,,0.14,WeatherDisplay:10.37,2013-11-15 20:14:00,
2013-11-16 07:19:00,61.3,56.1,29.95,SW,214,2.0,5.0,83,0.00,CLR,,0.14,WeatherDisplay:10.37,2013-11-15 20:19:00,
2013-11-16 07:24:00,61.3,56.1,29.95,SSW,201,3.0,6.0,83,0.00,CLR,,0.14,WeatherDisplay:10.37,2013-11-15 20:24:00,
2013-11-16 07:29:00,61.3,56.1,29.95,SSW,192,3.0,5.0,83,0.00,CLR,,0.14,WeatherDisplay:10.37,2013-11-15 20:29:00,
2013-11-16 07:34:00,61.3,56.1,29.94,SSW,195,3.0,5.0,83,0.00,CLR,,0.14,WeatherDisplay:10.37,2013-11-15 20:34:00,
2013-11-16 07:39:00,61.5,56.3,29.94,SSW,202,3.0,5.0,83,0.00,CLR,,0.14,WeatherDisplay:10.37,2013-11-15 20:39:00,
2013-11-16 07:44:00,61.5,56.3,29.94,SSW,206,2.0,5.0,83,0.00,CLR,,0.14,WeatherDisplay:10.37,2013-11-15 20:44:00,
2013-11-16 07:49:00,61.8,56.6,29.94,SSW,205,1.0,3.0,83,0.00,CLR,,0.14,WeatherDisplay:10.37,2013-11-15 20:49:00,
2013-11-16 07:54:00,62.0,56.8,29.94,SSW,211,0.0,5.0,83,0.00,CLR,,0.14,WeatherDisplay:10.37,2013-11-15 20:54:00,
2013-11-16 07:59:00,62.2,57.0,29.94,SSW,211,2.0,3.0,83,0.00,CLR,,0.14,WeatherDisplay:10.37,2013-11-15 20:59:00,
2013-11-16 08:04:00,62.4,57.2,29.94,SW,228,6.0,8.0,83,0.02,RA,,0.16,WeatherDisplay:10.37,2013-11-15 21:04:00,
2013-11-16 08:09:00,62.5,56.9,29.95,SW,221,3.0,8.0,82,0.00,RA,,0.16,WeatherDisplay:10.37,2013-11-15 21:09:00,
2013-11-16 08:14:00,62.8,57.2,29.95,SSW,205,3.0,8.0,82,0.00,CLR,,0.16,WeatherDisplay:10.37,2013-11-15 21:14:00,
2013-11-16 08:19:00,63.0,57.4,29.95,SSW,200,1.0,7.0,82,0.00,CLR,,0.16,WeatherDisplay:10.37,2013-11-15 21:19:00,
2013-11-16 08:24:00,63.1,57.6,29.96,SW,214,2.0,6.0,82,0.00,CLR,,0.16,WeatherDisplay:10.37,2013-11-15 21:24:00,
2013-11-16 08:29:00,63.5,57.9,29.96,SSW,205,5.0,8.0,82,0.00,CLR,,0.16,WeatherDisplay:10.37,2013-11-15 21:29:00,
2013-11-16 08:34:00,64.0,58.4,29.95,SW,217,3.0,6.0,82,0.00,CLR,,0.16,WeatherDisplay:10.37,2013-11-15 21:34:00,
2013-11-16 08:39:00,64.1,58.1,29.95,SSW,205,2.0,7.0,81,0.00,CLR,,0.16,WeatherDisplay:10.37,2013-11-15 21:39:00,
2013-11-16 08:44:00,64.4,58.1,29.96,South,187,3.0,8.0,80,0.00,CLR,,0.16,WeatherDisplay:10.37,2013-11-15 21:44:00,
2013-11-16 08:49:00,64.6,57.9,29.96,South,177,8.0,12.0,79,0.00,CLR,,0.16,WeatherDisplay:10.37,2013-11-15 21:49:00,
2013-11-16 08:54:00,64.8,57.1,29.96,South,174,7.0,14.0,76,0.00,CLR,,0.16,WeatherDisplay:10.37,2013-11-15 21:54:00,
2013-11-16 08:59:00,64.9,56.5,29.96,South,170,8.0,16.0,74,0.00,RA,,0.00,WeatherDisplay:10.37,2013-11-15 21:59:00,
2013-11-16 09:04:00,64.9,56.5,29.96,South,180,6.0,9.0,74,0.00,RA,,0.00,WeatherDisplay:10.37,2013-11-15 22:04:00,
2013-11-16 09:09:00,64.9,56.5,29.96,South,176,5.0,12.0,74,0.00,CLR,,0.00,WeatherDisplay:10.37,2013-11-15 22:09:00,
2013-11-16 09:14:00,64.9,56.5,29.96,South,171,7.0,14.0,74,0.00,CLR,,0.00,WeatherDisplay:10.37,2013-11-15 22:14:00,
2013-11-16 09:19:00,65.0,56.5,29.96,SSE,164,7.0,9.0,74,0.00,CLR,,0.00,WeatherDisplay:10.37,2013-11-15 22:19:00,
2013-11-16 09:24:00,65.3,56.8,29.95,SSE,159,8.0,14.0,74,0.00,CLR,,0.00,WeatherDisplay:10.37,2013-11-15 22:24:00,
2013-11-16 09:29:00,65.5,56.6,29.95,SSE,163,5.0,11.0,73,0.00,CLR,,0.00,WeatherDisplay:10.37,2013-11-15 22:29:00,
2013-11-16 09:34:00,65.7,56.8,29.95,SSE,167,6.0,13.0,73,0.00,CLR,,0.00,WeatherDisplay:10.37,2013-11-15 22:34:00,
2013-11-16 09:39:00,65.8,56.6,29.95,South,169,6.0,13.0,72,0.00,CLR,,0.00,WeatherDisplay:10.37,2013-11-15 22:39:00,
2013-11-16 09:44:00,66.0,56.7,29.95,South,176,6.0,14.0,72,0.00,CLR,,0.00,WeatherDisplay:10.37,2013-11-15 22:44:00,
2013-11-16 09:49:00,65.8,56.2,29.95,South,180,9.0,15.0,71,0.00,CLR,,0.00,WeatherDisplay:10.37,2013-11-15 22:49:00,
2013-11-16 09:54:00,65.8,55.8,29.95,South,169,9.0,17.0,70,0.00,CLR,,0.00,WeatherDisplay:10.37,2013-11-15 22:54:00,
2013-11-16 09:59:00,65.8,55.8,29.95,South,169,7.0,16.0,70,0.00,CLR,,0.00,WeatherDisplay:10.37,2013-11-15 22:59:00,
2013-11-16 10:04:00,66.3,55.8,29.95,South,175,12.0,18.0,69,0.00,CLR,,0.00,WeatherDisplay:10.37,2013-11-15 23:04:00,
2013-11-16 10:09:00,66.7,55.4,29.95,South,181,10.0,17.0,67,0.00,CLR,,0.00,WeatherDisplay:10.37,2013-11-15 23:09:00,
2013-11-16 10:14:00,66.9,55.6,29.95,South,184,6.0,17.0,67,0.00,CLR,,0.00,WeatherDisplay:10.37,2013-11-15 23:14:00,
2013-11-16 10:19:00,66.7,54.6,29.95,South,182,10.0,17.0,65,0.00,CLR,,0.00,WeatherDisplay:10.37,2013-11-15 23:19:00,
2013-11-16 10:29:00,67.3,54.3,29.95,South,176,7.0,20.0,63,0.00,CLR,,0.00,WeatherDisplay:10.37,2013-11-15 23:29:00,
2013-11-16 10:34:00,67.8,54.8,29.95,South,173,7.0,17.0,63,0.00,CLR,,0.00,WeatherDisplay:10.37,2013-11-15 23:34:00,
2013-11-16 10:39:00,68.2,54.2,29.95,SSE,166,7.0,16.0,61,0.00,CLR,,0.00,WeatherDisplay:10.37,2013-11-15 23:39:00,
2013-11-16 10:44:00,68.5,54.6,29.95,South,178,12.0,16.0,61,0.00,CLR,,0.00,WeatherDisplay:10.37,2013-11-15 23:44:00,
2013-11-16 10:49:00,68.7,54.3,29.95,South,172,9.0,14.0,60,0.00,CLR,,0.00,WeatherDisplay:10.37,2013-11-15 23:49:00,
2013-11-16 10:54:00,68.4,54.0,29.94,South,185,7.0,17.0,60,0.00,CLR,,0.00,WeatherDisplay:10.37,2013-11-15 23:54:00,
2013-11-16 10:59:00,68.5,54.9,29.95,South,184,8.0,15.0,62,0.00,CLR,,0.00,WeatherDisplay:10.37,2013-11-15 23:59:00,
2013-11-16 11:04:00,68.2,55.1,29.95,SSE,166,8.0,16.0,63,0.00,CLR,,0.00,WeatherDisplay:10.37,2013-11-16 00:04:00,
2013-11-16 11:09:00,68.1,55.5,29.95,South,169,10.0,15.0,64,0.00,CLR,,0.00,WeatherDisplay:10.37,2013-11-16 00:09:00,
2013-11-16 11:14:00,68.4,55.3,29.95,South,184,7.0,14.0,63,0.00,CLR,,0.00,WeatherDisplay:10.37,2013-11-16 00:14:00,
2013-11-16 11:19:00,68.6,55.9,29.94,South,177,7.0,14.0,64,0.00,CLR,,0.00,WeatherDisplay:10.37,2013-11-16 00:19:00,
2013-11-16 11:24:00,68.7,55.6,29.94,South,175,7.0,14.0,63,0.00,CLR,,0.00,WeatherDisplay:10.37,2013-11-16 00:24:00,
2013-11-16 11:29:00,68.9,55.8,29.95,South,177,12.0,17.0,63,0.00,CLR,,0.00,WeatherDisplay:10.37,2013-11-16 00:29:00,
2013-11-16 11:34:00,68.9,55.8,29.95,South,171,9.0,14.0,63,0.00,CLR,,0.00,WeatherDisplay:10.37,2013-11-16 00:34:00,
2013-11-16 11:39:00,69.1,55.1,29.95,South,172,8.0,14.0,61,0.00,CLR,,0.00,WeatherDisplay:10.37,2013-11-16 00:39:00,
2013-11-16 11:44:00,69.2,55.2,29.96,South,172,9.0,13.0,61,0.00,CLR,,0.00,WeatherDisplay:10.37,2013-11-16 00:44:00,
2013-11-16 11:49:00,69.1,54.6,29.96,South,178,10.0,15.0,60,0.00,CLR,,0.00,WeatherDisplay:10.37,2013-11-16 00:49:00,
2013-11-16 11:54:00,68.7,54.3,29.96,South,178,8.0,13.0,60,0.00,CLR,,0.00,WeatherDisplay:10.37,2013-11-16 00:54:00,
2013-11-16 11:59:00,68.5,53.6,29.96,South,178,8.0,12.0,59,0.00,CLR,,0.00,WeatherDisplay:10.37,2013-11-16 00:59:00,
2013-11-16 12:04:00,68.5,54.6,29.96,South,177,6.0,11.0,61,0.00,CLR,,0.00,WeatherDisplay:10.37,2013-11-16 01:04:00,
2013-11-16 12:09:00,68.5,54.1,29.96,SSE,168,7.0,11.0,60,0.00,CLR,,0.00,WeatherDisplay:10.37,2013-11-16 01:09:00,
2013-11-16 12:14:00,68.5,53.6,29.96,South,170,8.0,14.0,59,0.00,CLR,,0.00,WeatherDisplay:10.37,2013-11-16 01:14:00,
2013-11-16 12:19:00,68.3,53.9,29.96,South,179,9.0,13.0,60,0.00,CLR,,0.00,WeatherDisplay:10.37,2013-11-16 01:19:00,
2013-11-16 12:24:00,68.2,54.2,29.96,South,177,8.0,16.0,61,0.00,CLR,,0.00,WeatherDisplay:10.37,2013-11-16 01:24:00,
2013-11-16 12:29:00,67.8,54.3,29.96,South,172,6.0,13.0,62,0.00,CLR,,0.00,WeatherDisplay:10.37,2013-11-16 01:29:00,
2013-11-16 12:34:00,67.8,54.8,29.95,South,176,3.0,13.0,63,0.00,CLR,,0.00,WeatherDisplay:10.37,2013-11-16 01:34:00,
2013-11-16 12:39:00,67.9,54.9,29.96,SSE,166,8.0,12.0,63,0.00,CLR,,0.00,WeatherDisplay:10.37,2013-11-16 01:39:00,
2013-11-16 12:44:00,68.2,55.1,29.96,SSE,156,6.0,12.0,63,0.00,CLR,,0.00,WeatherDisplay:10.37,2013-11-16 01:44:00,
2013-11-16 12:49:00,68.2,55.1,29.95,SSE,157,7.0,11.0,63,0.00,CLR,,0.00,WeatherDisplay:10.37,2013-11-16 01:49:00,
2013-11-16 12:54:00,68.2,54.7,29.95,SSE,168,7.0,12.0,62,0.00,CLR,,0.00,WeatherDisplay:10.37,2013-11-16 01:54:00,
2013-11-16 12:59:00,68.1,55.1,29.94,SSE,163,6.0,14.0,63,0.00,CLR,,0.00,WeatherDisplay:10.37,2013-11-16 01:59:00,
2013-11-16 13:04:00,68.2,54.7,29.94,South,170,6.0,14.0,62,0.00,CLR,,0.00,WeatherDisplay:10.37,2013-11-16 02:04:00,
2013-11-16 13:09:00,68.2,54.7,29.94,South,186,8.0,16.0,62,0.00,CLR,,0.00,WeatherDisplay:10.37,2013-11-16 02:09:00,
2013-11-16 13:14:00,68.4,54.8,29.94,South,188,6.0,10.0,62,0.00,CLR,,0.00,WeatherDisplay:10.37,2013-11-16 02:14:00,
2013-11-16 13:19:00,68.5,55.0,29.94,South,174,7.0,12.0,62,0.00,CLR,,0.00,WeatherDisplay:10.37,2013-11-16 02:19:00,
2013-11-16 13:24:00,68.9,55.3,29.94,South,174,10.0,15.0,62,0.00,CLR,,0.00,WeatherDisplay:10.37,2013-11-16 02:24:00,
2013-11-16 13:29:00,69.0,55.4,29.94,South,173,8.0,13.0,62,0.00,CLR,,0.00,WeatherDisplay:10.37,2013-11-16 02:29:00,
2013-11-16 13:34:00,69.3,56.1,29.94,SSE,168,8.0,13.0,63,0.00,CLR,,0.00,WeatherDisplay:10.37,2013-11-16 02:34:00,
2013-11-16 13:39:00,69.4,55.9,29.93,SSE,162,9.0,12.0,62,0.00,CLR,,0.00,WeatherDisplay:10.37,2013-11-16 02:39:00,
2013-11-16 13:44:00,69.6,56.0,29.93,SSE,154,6.0,11.0,62,0.00,CLR,,0.00,WeatherDisplay:10.37,2013-11-16 02:44:00,
2013-11-16 13:49:00,69.6,56.5,29.93,SSE,167,8.0,16.0,63,0.00,CLR,,0.00,WeatherDisplay:10.37,2013-11-16 02:49:00,
2013-11-16 13:54:00,69.4,57.1,29.93,South,181,12.0,18.0,65,0.00,CLR,,0.00,WeatherDisplay:10.37,2013-11-16 02:54:00,
2013-11-16 13:59:00,69.1,56.8,29.93,South,180,7.0,17.0,65,0.00,CLR,,0.00,WeatherDisplay:10.37,2013-11-16 02:59:00,
2013-11-16 14:04:00,68.7,56.5,29.93,South,173,10.0,17.0,65,0.00,CLR,,0.00,WeatherDisplay:10.37,2013-11-16 03:04:00,
2013-11-16 14:09:00,68.7,56.5,29.92,SSE,162,10.0,15.0,65,0.00,CLR,,0.00,WeatherDisplay:10.37,2013-11-16 03:09:00,
2013-11-16 14:14:00,68.5,57.1,29.92,SSE,158,6.0,13.0,67,0.00,CLR,,0.00,WeatherDisplay:10.37,2013-11-16 03:14:00,
2013-11-16 14:19:00,68.2,57.6,29.92,SSE,157,7.0,12.0,69,0.00,CLR,,0.00,WeatherDisplay:10.37,2013-11-16 03:19:00,
2013-11-16 14:24:00,68.2,57.2,29.92,SSE,154,6.0,17.0,68,0.00,CLR,,0.00,WeatherDisplay:10.37,2013-11-16 03:24:00,
2013-11-16 14:29:00,68.2,56.4,29.92,SSE,151,7.0,18.0,66,0.00,CLR,,0.00,WeatherDisplay:10.37,2013-11-16 03:29:00,
2013-11-16 14:34:00,68.2,55.5,29.92,SSE,154,8.0,15.0,64,0.00,CLR,,0.00,WeatherDisplay:10.37,2013-11-16 03:34:00,
2013-11-16 14:39:00,68.2,55.5,29.92,SSE,162,9.0,15.0,64,0.00,CLR,,0.00,WeatherDisplay:10.37,2013-11-16 03:39:00,
2013-11-16 14:44:00,68.9,56.6,29.92,SSE,159,7.0,13.0,65,0.00,CLR,,0.00,WeatherDisplay:10.37,2013-11-16 03:44:00,
2013-11-16 14:49:00,69.4,56.7,29.91,SSE,154,6.0,13.0,64,0.00,CLR,,0.00,WeatherDisplay:10.37,2013-11-16 03:49:00,
2013-11-16 14:54:00,69.4,56.7,29.91,SSE,156,7.0,14.0,64,0.00,CLR,,0.00,WeatherDisplay:10.37,2013-11-16 03:54:00,
2013-11-16 14:59:00,70.0,57.2,29.91,SSE,151,8.0,13.0,64,0.00,CLR,,0.00,WeatherDisplay:10.37,2013-11-16 03:59:00,
2013-11-16 15:04:00,70.0,57.2,29.91,SE,140,6.0,18.0,64,0.00,CLR,,0.00,WeatherDisplay:10.37,2013-11-16 04:04:00,
2013-11-16 15:09:00,69.6,56.9,29.91,SE,145,5.0,12.0,64,0.00,CLR,,0.00,WeatherDisplay:10.37,2013-11-16 04:09:00,
2013-11-16 15:14:00,69.4,56.7,29.91,SSE,163,6.0,14.0,64,0.00,CLR,,0.00,WeatherDisplay:10.37,2013-11-16 04:14:00,
2013-11-16 15:19:00,69.3,56.6,29.91,SSE,163,7.0,15.0,64,0.00,CLR,,0.00,WeatherDisplay:10.37,2013-11-16 04:19:00,
2013-11-16 15:24:00,69.1,56.8,29.90,SSE,167,7.0,12.0,65,0.00,CLR,,0.00,WeatherDisplay:10.37,2013-11-16 04:24:00,
2013-11-16 15:29:00,68.9,56.6,29.90,South,169,9.0,13.0,65,0.00,CLR,,0.00,WeatherDisplay:10.37,2013-11-16 04:29:00,
2013-11-16 15:34:00,68.9,56.7,29.90,SSE,164,6.0,11.0,65,0.00,CLR,,0.00,WeatherDisplay:10.37,2013-11-16 04:34:00,
2013-11-16 15:39:00,69.1,56.8,29.91,SE,140,8.0,13.0,65,0.00,CLR,,0.00,WeatherDisplay:10.37,2013-11-16 04:39:00,
2013-11-16 15:49:00,69.2,56.5,29.91,SSE,148,8.0,16.0,64,0.00,CLR,,0.00,WeatherDisplay:10.37,2013-11-16 04:49:00,
2013-11-16 15:54:00,69.3,56.6,29.91,SSE,147,10.0,15.0,64,0.00,CLR,,0.00,WeatherDisplay:10.37,2013-11-16 04:54:00,
2013-11-16 15:59:00,69.4,56.3,29.91,SSE,147,7.0,15.0,63,0.00,CLR,,0.00,WeatherDisplay:10.37,2013-11-16 04:59:00,
2013-11-16 16:04:00,69.4,56.3,29.91,SSE,151,7.0,15.0,63,0.00,CLR,,0.00,WeatherDisplay:10.37,2013-11-16 05:04:00,
2013-11-16 16:09:00,69.5,56.3,29.91,SSE,162,8.0,15.0,63,0.00,CLR,,0.00,WeatherDisplay:10.37,2013-11-16 05:09:00,
2013-11-16 16:14:00,70.3,57.1,29.91,South,169,9.0,16.0,63,0.00,CLR,,0.00,WeatherDisplay:10.37,2013-11-16 05:14:00,
2013-11-16 16:19:00,70.7,56.1,29.91,SSE,166,8.0,13.0,60,0.00,CLR,,0.00,WeatherDisplay:10.37,2013-11-16 05:19:00,
2013-11-16 16:24:00,70.5,55.5,29.91,SSE,165,8.0,14.0,59,0.00,CLR,,0.00,WeatherDisplay:10.37,2013-11-16 05:24:00,
2013-11-16 16:29:00,70.9,56.3,29.91,SSE,167,7.0,17.0,60,0.00,CLR,,0.00,WeatherDisplay:10.37,2013-11-16 05:29:00,
2013-11-16 16:34:00,70.7,55.6,29.91,South,172,8.0,17.0,59,0.00,CLR,,0.00,WeatherDisplay:10.37,2013-11-16 05:34:00,
2013-11-16 16:39:00,70.5,55.5,29.91,South,170,6.0,17.0,59,0.00,CLR,,0.00,WeatherDisplay:10.37,2013-11-16 05:39:00,
2013-11-16 16:44:00,70.4,55.4,29.91,SSE,158,6.0,13.0,59,0.00,CLR,,0.00,WeatherDisplay:10.37,2013-11-16 05:44:00,
2013-11-16 16:49:00,70.5,55.5,29.91,SSE,153,10.0,15.0,59,0.00,CLR,,0.00,WeatherDisplay:10.37,2013-11-16 05:49:00,
2013-11-16 16:54:00,70.3,55.3,29.92,SSE,162,7.0,13.0,59,0.00,CLR,,0.00,WeatherDisplay:10.37,2013-11-16 05:54:00,
2013-11-16 16:59:00,70.0,55.5,29.92,SSE,164,9.0,14.0,60,0.00,CLR,,0.00,WeatherDisplay:10.37,2013-11-16 05:59:00,
2013-11-16 17:04:00,70.0,55.9,29.92,SSE,160,7.0,10.0,61,0.00,CLR,,0.00,WeatherDisplay:10.37,2013-11-16 06:04:00,
2013-11-16 17:09:00,69.8,55.3,29.91,SSE,166,5.0,12.0,60,0.00,CLR,,0.00,WeatherDisplay:10.37,2013-11-16 06:09:00,
2013-11-16 17:14:00,70.0,55.5,29.91,SSE,156,10.0,17.0,60,0.00,CLR,,0.00,WeatherDisplay:10.37,2013-11-16 06:14:00,
2013-11-16 17:19:00,70.3,55.3,29.92,SSE,157,12.0,15.0,59,0.00,CLR,,0.00,WeatherDisplay:10.37,2013-11-16 06:19:00,
2013-11-16 17:24:00,70.3,55.3,29.91,SE,145,10.0,16.0,59,0.00,CLR,,0.00,WeatherDisplay:10.37,2013-11-16 06:24:00,
2013-11-16 17:29:00,70.2,55.2,29.91,SE,143,5.0,15.0,59,0.00,CLR,,0.00,WeatherDisplay:10.37,2013-11-16 06:29:00,
2013-11-16 17:34:00,69.6,55.1,29.91,SSE,157,8.0,13.0,60,0.00,CLR,,0.00,WeatherDisplay:10.37,2013-11-16 06:34:00,
2013-11-16 17:39:00,69.8,55.7,29.91,SSE,163,7.0,13.0,61,0.00,CLR,,0.00,WeatherDisplay:10.37,2013-11-16 06:39:00,
2013-11-16 17:44:00,70.0,56.0,29.91,SSE,159,3.0,10.0,61,0.00,CLR,,0.00,WeatherDisplay:10.37,2013-11-16 06:44:00,
2013-11-16 17:49:00,70.3,56.2,29.91,SSE,159,5.0,12.0,61,0.00,CLR,,0.00,WeatherDisplay:10.37,2013-11-16 06:49:00,
2013-11-16 17:54:00,70.5,56.0,29.91,SSE,163,9.0,14.0,60,0.00,CLR,,0.00,WeatherDisplay:10.37,2013-11-16 06:54:00,
2013-11-16 17:59:00,69.9,55.4,29.91,South,174,9.0,16.0,60,0.00,CLR,,0.00,WeatherDisplay:10.37,2013-11-16 06:59:00,
2013-11-16 18:04:00,69.9,55.4,29.91,South,182,8.0,18.0,60,0.00,CLR,,0.00,WeatherDisplay:10.37,2013-11-16 07:04:00,
2013-11-16 18:09:00,70.0,55.5,29.92,South,173,6.0,18.0,60,0.00,CLR,,0.00,WeatherDisplay:10.37,2013-11-16 07:09:00,
2013-11-16 18:14:00,69.6,55.1,29.92,SSE,160,10.0,18.0,60,0.00,CLR,,0.00,WeatherDisplay:10.37,2013-11-16 07:14:00,
2013-11-16 18:19:00,69.4,56.3,29.92,SSE,161,8.0,15.0,63,0.00,CLR,,0.00,WeatherDisplay:10.37,2013-11-16 07:19:00,
2013-11-16 18:24:00,68.9,56.2,29.92,South,174,8.0,14.0,64,0.00,CLR,,0.00,WeatherDisplay:10.37,2013-11-16 07:24:00,
2013-11-16 18:29:00,68.7,56.5,29.92,South,178,7.0,13.0,65,0.00,CLR,,0.00,WeatherDisplay:10.37,2013-11-16 07:29:00,
2013-11-16 18:34:00,68.2,56.0,29.92,South,172,5.0,14.0,65,0.00,CLR,,0.00,WeatherDisplay:10.37,2013-11-16 07:34:00,
2013-11-16 18:39:00,67.8,56.0,29.93,SSE,165,3.0,11.0,66,0.00,CLR,,0.00,WeatherDisplay:10.37,2013-11-16 07:39:00,
2013-11-16 18:44:00,67.5,55.8,29.93,SSE,166,5.0,12.0,66,0.00,CLR,,0.00,WeatherDisplay:10.37,2013-11-16 07:44:00,
2013-11-16 18:49:00,67.2,55.9,29.93,SSE,161,7.0,12.0,67,0.00,CLR,,0.00,WeatherDisplay:10.37,2013-11-16 07:49:00,
2013-11-16 18:54:00,66.9,56.0,29.93,SSE,166,7.0,12.0,68,0.00,CLR,,0.00,WeatherDisplay:10.37,2013-11-16 07:54:00,
2013-11-16 18:59:00,66.7,55.8,29.93,South,177,6.0,12.0,68,0.00,CLR,,0.00,WeatherDisplay:10.37,2013-11-16 07:59:00,
2013-11-16 19:04:00,66.6,55.7,29.93,South,176,10.0,13.0,68,0.00,CLR,,0.00,WeatherDisplay:10.37,2013-11-16 08:04:00,
2013-11-16 19:09:00,66.6,56.1,29.93,South,177,6.0,17.0,69,0.00,CLR,,0.00,WeatherDisplay:10.37,2013-11-16 08:09:00,
2013-11-16 19:14:00,66.6,56.1,29.93,South,174,5.0,10.0,69,0.00,CLR,,0.00,WeatherDisplay:10.37,2013-11-16 08:14:00,
2013-11-16 19:19:00,66.6,56.5,29.94,South,180,5.0,11.0,70,0.00,CLR,,0.00,WeatherDisplay:10.37,2013-11-16 08:19:00,
2013-11-16 19:24:00,66.6,56.5,29.94,South,170,6.0,11.0,70,0.00,CLR,,0.00,WeatherDisplay:10.37,2013-11-16 08:24:00,
2013-11-16 19:29:00,66.6,56.2,29.94,SSE,163,6.0,8.0,69,0.00,CLR,,0.00,WeatherDisplay:10.37,2013-11-16 08:29:00,
2013-11-16 19:34:00,66.6,56.1,29.94,SSE,167,7.0,12.0,69,0.00,CLR,,0.00,WeatherDisplay:10.37,2013-11-16 08:34:00,
2013-11-16 19:39:00,66.6,56.1,29.94,SSE,165,7.0,12.0,69,0.00,CLR,,0.00,WeatherDisplay:10.37,2013-11-16 08:39:00,
2013-11-16 19:44:00,66.6,55.7,29.94,SSE,159,5.0,12.0,68,0.00,CLR,,0.00,WeatherDisplay:10.37,2013-11-16 08:44:00,
2013-11-16 19:49:00,66.4,55.5,29.94,SSE,165,6.0,8.0,68,0.00,CLR,,0.00,WeatherDisplay:10.37,2013-11-16 08:49:00,
2013-11-16 19:54:00,66.4,55.5,29.94,South,171,2.0,12.0,68,0.00,CLR,,0.00,WeatherDisplay:10.37,2013-11-16 08:54:00,
2013-11-16 19:59:00,66.4,55.5,29.94,SSE,163,3.0,8.0,68,0.00,CLR,,0.00,WeatherDisplay:10.37,2013-11-16 08:59:00,
2013-11-16 20:04:00,66.4,55.5,29.94,SSE,158,7.0,12.0,68,0.00,CLR,,0.00,WeatherDisplay:10.37,2013-11-16 09:04:00,
2013-11-16 20:09:00,66.2,55.7,29.94,SSE,155,2.0,7.0,69,0.00,CLR,,0.00,WeatherDisplay:10.37,2013-11-16 09:09:00,
2013-11-16 20:14:00,66.2,55.7,29.94,SSE,160,3.0,10.0,69,0.00,CLR,,0.00,WeatherDisplay:10.37,2013-11-16 09:14:00,
2013-11-16 20:24:00,66.0,56.0,29.94,SSE,153,5.0,9.0,70,0.00,CLR,,0.00,WeatherDisplay:10.37,2013-11-16 09:24:00,
2013-11-16 20:29:00,66.0,56.0,29.94,SE,144,2.0,7.0,70,0.00,CLR,,0.00,WeatherDisplay:10.37,2013-11-16 09:29:00,
2013-11-16 20:34:00,66.0,56.3,29.94,SSE,150,8.0,12.0,71,0.00,CLR,,0.00,WeatherDisplay:10.37,2013-11-16 09:34:00,
2013-11-16 20:39:00,66.0,56.3,29.95,SSE,149,9.0,18.0,71,0.00,CLR,,0.00,WeatherDisplay:10.37,2013-11-16 09:39:00,
2013-11-16 20:44:00,65.8,56.6,29.95,SE,138,9.0,15.0,72,0.02,RA,,0.02,WeatherDisplay:10.37,2013-11-16 09:44:00,
2013-11-16 20:49:00,65.3,57.2,29.95,ESE,118,6.0,12.0,75,0.00,RA,,0.02,WeatherDisplay:10.37,2013-11-16 09:49:00,
2013-11-16 20:54:00,65.1,57.4,29.95,ESE,118,5.0,8.0,76,0.00,CLR,,0.02,WeatherDisplay:10.37,2013-11-16 09:54:00,
2013-11-16 20:59:00,64.9,57.2,29.95,SSE,153,5.0,9.0,76,0.00,CLR,,0.02,WeatherDisplay:10.37,2013-11-16 09:59:00,
2013-11-16 21:04:00,64.6,56.8,29.95,SSE,161,1.0,9.0,76,0.00,CLR,,0.02,WeatherDisplay:10.37,2013-11-16 10:04:00,
2013-11-16 21:09:00,64.6,57.2,29.95,SSE,163,6.0,10.0,77,0.00,CLR,,0.02,WeatherDisplay:10.37,2013-11-16 10:09:00,
2013-11-16 21:14:00,64.6,56.8,29.95,South,169,5.0,8.0,76,0.00,CLR,,0.02,WeatherDisplay:10.37,2013-11-16 10:14:00,
2013-11-16 21:19:00,64.6,56.8,29.95,South,174,3.0,6.0,76,0.00,CLR,,0.02,WeatherDisplay:10.37,2013-11-16 10:19:00,
2013-11-16 21:24:00,64.2,56.5,29.96,South,181,3.0,7.0,76,0.00,CLR,,0.02,WeatherDisplay:10.37,2013-11-16 10:24:00,
2013-11-16 21:29:00,64.4,56.7,29.96,South,187,3.0,6.0,76,0.00,CLR,,0.02,WeatherDisplay:10.37,2013-11-16 10:29:00,
2013-11-16 21:34:00,64.4,56.7,29.96,SSW,195,5.0,6.0,76,0.00,CLR,,0.02,WeatherDisplay:10.37,2013-11-16 10:34:00,
2013-11-16 21:39:00,64.2,56.5,29.96,SSW,193,3.0,7.0,76,0.00,CLR,,0.02,WeatherDisplay:10.37,2013-11-16 10:39:00,
2013-11-16 21:44:00,64.4,56.7,29.95,SSW,211,3.0,7.0,76,0.00,CLR,,0.02,WeatherDisplay:10.37,2013-11-16 10:44:00,
2013-11-16 21:49:00,64.2,56.5,29.95,SW,217,3.0,6.0,76,0.00,CLR,,0.02,WeatherDisplay:10.37,2013-11-16 10:49:00,
2013-11-16 21:54:00,64.2,56.5,29.95,SSW,212,5.0,7.0,76,0.00,CLR,,0.02,WeatherDisplay:10.37,2013-11-16 10:54:00,
2013-11-16 21:59:00,64.2,56.5,29.95,SW,224,1.0,5.0,76,0.00,CLR,,0.02,WeatherDisplay:10.37,2013-11-16 10:59:00,
2013-11-16 22:04:00,64.0,56.7,29.96,WSW,254,1.0,4.0,77,0.00,CLR,,0.02,WeatherDisplay:10.37,2013-11-16 11:04:00,
2013-11-16 22:09:00,63.7,56.3,29.96,WSW,253,0.0,3.0,77,0.00,CLR,,0.02,WeatherDisplay:10.37,2013-11-16 11:09:00,
2013-11-16 22:14:00,63.6,56.3,29.96,West,262,1.0,3.0,77,0.00,CLR,,0.02,WeatherDisplay:10.37,2013-11-16 11:14:00,
2013-11-16 22:19:00,63.3,56.3,29.95,West,264,1.0,3.0,78,0.00,CLR,,0.02,WeatherDisplay:10.37,2013-11-16 11:19:00,
2013-11-16 22:24:00,63.3,56.3,29.96,West,267,1.0,4.0,78,0.00,CLR,,0.02,WeatherDisplay:10.37,2013-11-16 11:24:00,
2013-11-16 22:29:00,63.1,56.2,29.96,West,262,1.0,6.0,78,0.00,CLR,,0.02,WeatherDisplay:10.37,2013-11-16 11:29:00,
2013-11-16 22:34:00,63.3,56.3,29.96,SW,233,1.0,5.0,78,0.00,CLR,,0.02,WeatherDisplay:10.37,2013-11-16 11:34:00,
2013-11-16 22:39:00,63.3,56.3,29.96,SW,223,3.0,6.0,78,0.00,CLR,,0.02,WeatherDisplay:10.37,2013-11-16 11:39:00,
2013-11-16 22:44:00,63.2,56.2,29.95,SW,229,3.0,7.0,78,0.00,CLR,,0.02,WeatherDisplay:10.37,2013-11-16 11:44:00,
2013-11-16 22:49:00,63.1,56.2,29.95,SW,234,1.0,5.0,78,0.00,CLR,,0.02,WeatherDisplay:10.37,2013-11-16 11:49:00,
2013-11-16 22:54:00,63.1,56.2,29.95,WSW,238,2.0,5.0,78,0.00,CLR,,0.02,WeatherDisplay:10.37,2013-11-16 11:54:00,
2013-11-16 22:59:00,63.1,56.2,29.95,SW,214,1.0,5.0,78,0.00,CLR,,0.02,WeatherDisplay:10.37,2013-11-16 11:59:00,
2013-11-16 23:04:00,63.1,56.5,29.95,SSW,200,0.0,1.0,79,0.00,CLR,,0.02,WeatherDisplay:10.37,2013-11-16 12:04:00,
2013-11-16 23:09:00,63.1,56.5,29.95,SW,217,1.0,4.0,79,0.00,CLR,,0.02,WeatherDisplay:10.37,2013-11-16 12:09:00,
2013-11-16 23:14:00,63.1,56.5,29.95,SW,219,3.0,7.0,79,0.00,CLR,,0.02,WeatherDisplay:10.37,2013-11-16 12:14:00,
2013-11-16 23:19:00,63.1,56.5,29.95,SW,216,6.0,9.0,79,0.00,CLR,,0.02,WeatherDisplay:10.37,2013-11-16 12:19:00,
2013-11-16 23:24:00,62.8,56.5,29.95,SSW,207,8.0,12.0,80,0.00,CLR,,0.02,WeatherDisplay:10.37,2013-11-16 12:24:00,
2013-11-16 23:29:00,62.6,56.3,29.95,SSW,212,3.0,11.0,80,0.00,CLR,,0.02,WeatherDisplay:10.37,2013-11-16 12:29:00,
2013-11-16 23:34:00,62.6,56.7,29.95,SW,225,3.0,6.0,81,0.00,CLR,,0.02,WeatherDisplay:10.37,2013-11-16 12:34:00,
2013-11-16 23:39:00,62.5,56.6,29.95,SW,228,6.0,8.0,81,0.00,CLR,,0.02,WeatherDisplay:10.37,2013-11-16 12:39:00,
2013-11-16 23:44:00,62.4,56.5,29.95,SW,226,5.0,11.0,81,0.00,CLR,,0.02,WeatherDisplay:10.37,2013-11-16 12:44:00,
2013-11-16 23:49:00,62.2,56.7,29.95,SW,224,7.0,13.0,82,0.00,CLR,,0.02,WeatherDisplay:10.37,2013-11-16 12:49:00,
2013-11-16 23:54:00,62.1,56.5,29.95,SSW,212,7.0,12.0,82,0.00,CLR,,0.02,WeatherDisplay:10.37,2013-11-16 12:54:00,
2013-11-16 23:59:00,62.0,56.4,29.95,SSW,207,7.0,12.0,82,0.00,CLR,,0.02,WeatherDisplay:10.37,2013-11-16 12:59:00,